sensor_id;sensor_type;location;lat;lon;timestamp;pressure;altitude;pressure_sealevel;temperature;humidity
48156;BME280;35568;48.104;11.782;2023-05-21T00:01:32;95042.89;;;15.96;43.81
48156;BME280;35568;48.104;11.782;2023-05-21T00:03:59;95038.90;;;15.89;43.95
48156;BME280;35568;48.104;11.782;2023-05-21T00:06:26;95037.43;;;16.13;43.78
48156;BME280;35568;48.104;11.782;2023-05-21T00:08:53;95032.85;;;16.05;43.40
48156;BME280;35568;48.104;11.782;2023-05-21T00:11:20;95030.72;;;15.94;43.50
48156;BME280;35568;48.104;11.782;2023-05-21T00:13:46;95032.85;;;16.03;43.77
48156;BME280;35568;48.104;11.782;2023-05-21T00:16:14;95029.72;;;16.10;43.75
48156;BME280;35568;48.104;11.782;2023-05-21T00:18:42;95026.96;;;15.94;43.43
48156;BME280;35568;48.104;11.782;2023-05-21T00:21:08;95021.93;;;15.85;43.37
48156;BME280;35568;48.104;11.782;2023-05-21T00:23:36;95022.23;;;16.08;43.25
48156;BME280;35568;48.104;11.782;2023-05-21T00:26:03;95023.95;;;15.79;43.06
48156;BME280;35568;48.104;11.782;2023-05-21T00:28:30;95022.11;;;15.68;43.13
48156;BME280;35568;48.104;11.782;2023-05-21T00:30:56;95015.43;;;15.46;43.16
48156;BME280;35568;48.104;11.782;2023-05-21T00:33:23;95018.12;;;15.80;43.01
48156;BME280;35568;48.104;11.782;2023-05-21T00:35:50;95016.21;;;16.14;42.99
48156;BME280;35568;48.104;11.782;2023-05-21T00:38:17;95017.75;;;15.68;42.67
48156;BME280;35568;48.104;11.782;2023-05-21T00:40:44;95017.22;;;15.73;42.52
48156;BME280;35568;48.104;11.782;2023-05-21T00:43:11;95016.32;;;15.89;42.57
48156;BME280;35568;48.104;11.782;2023-05-21T00:45:39;95010.49;;;16.04;42.41
48156;BME280;35568;48.104;11.782;2023-05-21T00:48:07;95007.98;;;15.47;42.35
48156;BME280;35568;48.104;11.782;2023-05-21T00:50:34;95007.31;;;15.30;42.51
48156;BME280;35568;48.104;11.782;2023-05-21T00:53:01;95006.95;;;15.80;42.55
48156;BME280;35568;48.104;11.782;2023-05-21T00:55:28;95006.91;;;15.50;42.58
48156;BME280;35568;48.104;11.782;2023-05-21T00:57:56;95005.26;;;15.86;42.61
48156;BME280;35568;48.104;11.782;2023-05-21T01:00:23;95004.27;;;15.61;42.61
48156;BME280;35568;48.104;11.782;2023-05-21T01:02:50;95002.22;;;15.82;42.42
48156;BME280;35568;48.104;11.782;2023-05-21T01:05:17;95002.67;;;15.58;42.51
48156;BME280;35568;48.104;11.782;2023-05-21T01:07:45;95001.82;;;15.82;42.22
48156;BME280;35568;48.104;11.782;2023-05-21T01:10:12;94997.50;;;15.50;41.86
48156;BME280;35568;48.104;11.782;2023-05-21T01:12:41;94998.81;;;15.49;41.94
48156;BME280;35568;48.104;11.782;2023-05-21T01:15:10;95002.60;;;15.78;42.14
48156;BME280;35568;48.104;11.782;2023-05-21T01:17:37;94999.73;;;15.50;42.23
48156;BME280;35568;48.104;11.782;2023-05-21T01:20:06;94998.76;;;15.63;42.36
48156;BME280;35568;48.104;11.782;2023-05-21T01:22:34;94997.18;;;15.43;42.43
48156;BME280;35568;48.104;11.782;2023-05-21T01:25:02;94999.32;;;15.53;42.22
48156;BME280;35568;48.104;11.782;2023-05-21T01:27:29;94996.53;;;15.45;42.11
48156;BME280;35568;48.104;11.782;2023-05-21T01:29:56;94995.81;;;15.31;42.22
48156;BME280;35568;48.104;11.782;2023-05-21T01:32:28;94994.79;;;15.69;42.37
48156;BME280;35568;48.104;11.782;2023-05-21T01:35:03;94992.40;;;15.43;42.38
48156;BME280;35568;48.104;11.782;2023-05-21T01:37:35;94990.81;;;14.99;42.48
48156;BME280;35568;48.104;11.782;2023-05-21T01:40:09;94988.32;;;15.51;41.93
48156;BME280;35568;48.104;11.782;2023-05-21T01:42:38;94986.35;;;15.49;41.72
48156;BME280;35568;48.104;11.782;2023-05-21T01:45:07;94984.05;;;15.16;41.92
48156;BME280;35568;48.104;11.782;2023-05-21T01:47:36;94984.32;;;15.25;41.74
48156;BME280;35568;48.104;11.782;2023-05-21T01:50:04;94985.17;;;15.65;41.42
48156;BME280;35568;48.104;11.782;2023-05-21T01:52:31;94983.61;;;15.31;41.73
48156;BME280;35568;48.104;11.782;2023-05-21T01:54:58;94983.86;;;15.56;41.22
48156;BME280;35568;48.104;11.782;2023-05-21T01:57:25;94979.84;;;15.42;41.30
48156;BME280;35568;48.104;11.782;2023-05-21T01:59:52;94980.04;;;15.08;41.45
48156;BME280;35568;48.104;11.782;2023-05-21T02:02:19;94977.22;;;15.39;41.69
48156;BME280;35568;48.104;11.782;2023-05-21T02:04:46;94976.81;;;15.36;41.63
48156;BME280;35568;48.104;11.782;2023-05-21T02:07:13;94976.34;;;15.30;41.77
48156;BME280;35568;48.104;11.782;2023-05-21T02:09:40;94977.79;;;15.37;41.68
48156;BME280;35568;48.104;11.782;2023-05-21T02:12:07;94979.09;;;15.36;41.80
48156;BME280;35568;48.104;11.782;2023-05-21T02:14:34;94978.92;;;15.13;41.65
48156;BME280;35568;48.104;11.782;2023-05-21T02:17:01;94980.06;;;15.35;42.08
48156;BME280;35568;48.104;11.782;2023-05-21T02:19:28;94979.14;;;15.10;42.02
48156;BME280;35568;48.104;11.782;2023-05-21T02:21:55;94983.93;;;15.19;42.24
48156;BME280;35568;48.104;11.782;2023-05-21T02:24:23;94980.68;;;14.81;42.21
48156;BME280;35568;48.104;11.782;2023-05-21T02:26:50;94977.10;;;14.93;42.38
48156;BME280;35568;48.104;11.782;2023-05-21T02:29:17;94979.74;;;14.95;42.49
48156;BME280;35568;48.104;11.782;2023-05-21T02:31:43;94977.18;;;15.00;42.47
48156;BME280;35568;48.104;11.782;2023-05-21T02:34:10;94975.27;;;14.75;42.48
48156;BME280;35568;48.104;11.782;2023-05-21T02:36:37;94977.97;;;15.07;42.72
48156;BME280;35568;48.104;11.782;2023-05-21T02:39:04;94979.70;;;14.76;42.92
48156;BME280;35568;48.104;11.782;2023-05-21T02:41:30;94975.47;;;14.84;42.82
48156;BME280;35568;48.104;11.782;2023-05-21T02:43:57;94973.49;;;15.00;42.88
48156;BME280;35568;48.104;11.782;2023-05-21T02:46:23;94976.32;;;14.78;42.66
48156;BME280;35568;48.104;11.782;2023-05-21T02:48:50;94980.39;;;14.92;42.92
48156;BME280;35568;48.104;11.782;2023-05-21T02:51:18;94976.58;;;14.99;42.70
48156;BME280;35568;48.104;11.782;2023-05-21T02:53:44;94973.77;;;14.65;42.80
48156;BME280;35568;48.104;11.782;2023-05-21T02:56:12;94974.56;;;14.63;42.86
48156;BME280;35568;48.104;11.782;2023-05-21T02:58:39;94975.13;;;14.70;42.83
48156;BME280;35568;48.104;11.782;2023-05-21T03:03:02;94975.88;;;14.71;42.64
48156;BME280;35568;48.104;11.782;2023-05-21T03:05:29;94974.47;;;14.49;42.57
48156;BME280;35568;48.104;11.782;2023-05-21T03:07:56;94975.86;;;15.01;42.82
48156;BME280;35568;48.104;11.782;2023-05-21T03:10:23;94972.61;;;14.92;42.64
48156;BME280;35568;48.104;11.782;2023-05-21T03:12:50;94968.99;;;14.71;43.41
48156;BME280;35568;48.104;11.782;2023-05-21T03:15:17;94970.60;;;14.73;42.98
48156;BME280;35568;48.104;11.782;2023-05-21T03:17:44;94971.20;;;14.69;42.88
48156;BME280;35568;48.104;11.782;2023-05-21T03:20:16;94970.97;;;14.23;43.21
48156;BME280;35568;48.104;11.782;2023-05-21T03:22:44;94965.86;;;14.57;43.18
48156;BME280;35568;48.104;11.782;2023-05-21T03:25:11;94961.92;;;14.53;42.87
48156;BME280;35568;48.104;11.782;2023-05-21T03:27:39;94963.37;;;14.66;43.11
48156;BME280;35568;48.104;11.782;2023-05-21T03:30:07;94960.36;;;14.68;43.09
48156;BME280;35568;48.104;11.782;2023-05-21T03:32:34;94959.94;;;14.50;43.26
48156;BME280;35568;48.104;11.782;2023-05-21T03:35:01;94962.45;;;14.67;43.33
48156;BME280;35568;48.104;11.782;2023-05-21T03:37:28;94961.49;;;14.29;43.52
48156;BME280;35568;48.104;11.782;2023-05-21T03:39:55;94963.28;;;14.05;43.77
48156;BME280;35568;48.104;11.782;2023-05-21T03:42:22;94968.48;;;14.18;43.56
48156;BME280;35568;48.104;11.782;2023-05-21T03:44:49;94964.68;;;14.35;43.53
48156;BME280;35568;48.104;11.782;2023-05-21T03:47:16;94964.22;;;14.57;43.42
48156;BME280;35568;48.104;11.782;2023-05-21T03:49:43;94967.38;;;14.78;43.22
48156;BME280;35568;48.104;11.782;2023-05-21T03:52:10;94967.51;;;14.35;43.51
48156;BME280;35568;48.104;11.782;2023-05-21T03:54:37;94967.65;;;14.51;43.50
48156;BME280;35568;48.104;11.782;2023-05-21T03:57:05;94963.07;;;14.47;43.47
48156;BME280;35568;48.104;11.782;2023-05-21T03:59:31;94964.46;;;14.72;43.48
48156;BME280;35568;48.104;11.782;2023-05-21T04:01:58;94961.10;;;14.69;43.37
48156;BME280;35568;48.104;11.782;2023-05-21T04:04:25;94963.07;;;14.63;43.53
48156;BME280;35568;48.104;11.782;2023-05-21T04:06:52;94965.67;;;14.54;43.50
48156;BME280;35568;48.104;11.782;2023-05-21T04:09:19;94963.04;;;14.57;43.53
48156;BME280;35568;48.104;11.782;2023-05-21T04:11:46;94961.60;;;14.57;43.81
48156;BME280;35568;48.104;11.782;2023-05-21T04:14:14;94963.64;;;14.42;43.61
48156;BME280;35568;48.104;11.782;2023-05-21T04:16:40;94964.19;;;14.56;43.62
48156;BME280;35568;48.104;11.782;2023-05-21T04:19:08;94963.99;;;14.46;43.76
48156;BME280;35568;48.104;11.782;2023-05-21T04:21:34;94965.67;;;14.60;43.80
48156;BME280;35568;48.104;11.782;2023-05-21T04:24:01;94964.87;;;14.49;43.61
48156;BME280;35568;48.104;11.782;2023-05-21T04:26:29;94962.63;;;14.67;43.41
48156;BME280;35568;48.104;11.782;2023-05-21T04:28:56;94965.73;;;14.83;43.11
48156;BME280;35568;48.104;11.782;2023-05-21T04:31:24;94969.25;;;14.97;42.94
48156;BME280;35568;48.104;11.782;2023-05-21T04:33:51;94970.28;;;15.06;43.09
48156;BME280;35568;48.104;11.782;2023-05-21T04:36:17;94973.38;;;15.10;43.21
48156;BME280;35568;48.104;11.782;2023-05-21T04:38:44;94975.14;;;15.01;43.26
48156;BME280;35568;48.104;11.782;2023-05-21T04:41:17;94980.37;;;14.84;43.27
48156;BME280;35568;48.104;11.782;2023-05-21T04:43:45;94978.97;;;15.05;43.18
48156;BME280;35568;48.104;11.782;2023-05-21T04:46:12;94976.95;;;15.07;42.75
48156;BME280;35568;48.104;11.782;2023-05-21T04:48:39;94976.25;;;15.09;42.77
48156;BME280;35568;48.104;11.782;2023-05-21T04:51:05;94979.71;;;15.32;42.70
48156;BME280;35568;48.104;11.782;2023-05-21T04:53:33;94976.72;;;15.36;42.56
48156;BME280;35568;48.104;11.782;2023-05-21T04:56:00;94975.19;;;14.95;42.62
48156;BME280;35568;48.104;11.782;2023-05-21T04:58:27;94977.16;;;15.14;42.64
48156;BME280;35568;48.104;11.782;2023-05-21T05:00:54;94981.77;;;15.74;42.23
48156;BME280;35568;48.104;11.782;2023-05-21T05:03:20;94977.85;;;15.69;42.40
48156;BME280;35568;48.104;11.782;2023-05-21T05:05:48;94979.47;;;15.31;42.14
48156;BME280;35568;48.104;11.782;2023-05-21T05:08:15;94980.08;;;15.54;42.13
48156;BME280;35568;48.104;11.782;2023-05-21T05:10:42;94978.90;;;15.58;42.25
48156;BME280;35568;48.104;11.782;2023-05-21T05:13:08;94979.34;;;15.55;41.99
48156;BME280;35568;48.104;11.782;2023-05-21T05:15:35;94979.15;;;15.67;41.79
48156;BME280;35568;48.104;11.782;2023-05-21T05:18:03;94978.49;;;15.20;41.66
48156;BME280;35568;48.104;11.782;2023-05-21T05:20:30;94978.17;;;16.00;41.21
48156;BME280;35568;48.104;11.782;2023-05-21T05:22:58;94981.01;;;15.90;41.45
48156;BME280;35568;48.104;11.782;2023-05-21T05:25:25;94982.92;;;15.69;41.53
48156;BME280;35568;48.104;11.782;2023-05-21T05:27:52;94980.63;;;16.24;41.83
48156;BME280;35568;48.104;11.782;2023-05-21T05:30:19;94977.92;;;16.08;41.72
48156;BME280;35568;48.104;11.782;2023-05-21T05:32:46;94983.72;;;16.12;41.64
48156;BME280;35568;48.104;11.782;2023-05-21T05:35:13;94986.08;;;16.59;41.22
48156;BME280;35568;48.104;11.782;2023-05-21T05:37:40;94985.22;;;16.08;41.20
48156;BME280;35568;48.104;11.782;2023-05-21T05:40:08;94981.82;;;15.85;41.64
48156;BME280;35568;48.104;11.782;2023-05-21T05:42:35;94981.64;;;16.20;41.45
48156;BME280;35568;48.104;11.782;2023-05-21T05:45:01;94981.41;;;16.06;41.36
48156;BME280;35568;48.104;11.782;2023-05-21T05:47:29;94980.85;;;16.44;41.12
48156;BME280;35568;48.104;11.782;2023-05-21T05:49:56;94980.54;;;16.27;41.10
48156;BME280;35568;48.104;11.782;2023-05-21T05:52:23;94981.68;;;16.24;41.34
48156;BME280;35568;48.104;11.782;2023-05-21T05:54:50;94981.27;;;16.84;40.34
48156;BME280;35568;48.104;11.782;2023-05-21T05:57:17;94985.13;;;16.77;40.33
48156;BME280;35568;48.104;11.782;2023-05-21T05:59:44;94984.53;;;17.00;40.50
48156;BME280;35568;48.104;11.782;2023-05-21T06:02:11;94987.22;;;16.89;40.50
48156;BME280;35568;48.104;11.782;2023-05-21T06:04:38;94985.91;;;17.24;40.14
48156;BME280;35568;48.104;11.782;2023-05-21T06:07:05;94984.33;;;17.32;39.92
48156;BME280;35568;48.104;11.782;2023-05-21T06:09:32;94982.46;;;17.12;40.07
48156;BME280;35568;48.104;11.782;2023-05-21T06:11:59;94982.26;;;16.99;40.03
48156;BME280;35568;48.104;11.782;2023-05-21T06:14:26;94984.75;;;17.14;39.84
48156;BME280;35568;48.104;11.782;2023-05-21T06:16:54;94984.71;;;17.18;39.33
48156;BME280;35568;48.104;11.782;2023-05-21T06:19:21;94980.88;;;16.96;39.91
48156;BME280;35568;48.104;11.782;2023-05-21T06:21:48;94982.17;;;17.13;39.26
48156;BME280;35568;48.104;11.782;2023-05-21T06:24:15;94981.81;;;17.21;39.83
48156;BME280;35568;48.104;11.782;2023-05-21T06:26:42;94982.83;;;17.09;39.52
48156;BME280;35568;48.104;11.782;2023-05-21T06:29:09;94986.14;;;17.01;39.72
48156;BME280;35568;48.104;11.782;2023-05-21T06:31:35;94988.59;;;17.72;39.36
48156;BME280;35568;48.104;11.782;2023-05-21T06:34:02;94991.64;;;17.44;39.24
48156;BME280;35568;48.104;11.782;2023-05-21T06:36:30;94985.53;;;17.85;39.10
48156;BME280;35568;48.104;11.782;2023-05-21T06:38:57;94991.82;;;18.05;38.96
48156;BME280;35568;48.104;11.782;2023-05-21T06:41:24;94991.49;;;18.00;39.21
48156;BME280;35568;48.104;11.782;2023-05-21T06:43:50;94989.80;;;18.10;38.75
48156;BME280;35568;48.104;11.782;2023-05-21T06:46:17;94990.70;;;18.18;38.41
48156;BME280;35568;48.104;11.782;2023-05-21T06:48:45;94996.47;;;18.21;38.29
48156;BME280;35568;48.104;11.782;2023-05-21T06:51:13;94998.90;;;18.25;38.24
48156;BME280;35568;48.104;11.782;2023-05-21T06:53:41;95000.61;;;17.76;38.49
48156;BME280;35568;48.104;11.782;2023-05-21T06:56:08;95003.52;;;17.94;38.23
48156;BME280;35568;48.104;11.782;2023-05-21T06:58:36;95005.57;;;17.73;38.64
48156;BME280;35568;48.104;11.782;2023-05-21T07:01:09;95007.43;;;18.00;38.75
48156;BME280;35568;48.104;11.782;2023-05-21T07:03:35;95009.95;;;18.32;38.21
48156;BME280;35568;48.104;11.782;2023-05-21T07:06:04;95009.98;;;18.53;38.16
48156;BME280;35568;48.104;11.782;2023-05-21T07:08:31;95009.80;;;17.91;38.77
48156;BME280;35568;48.104;11.782;2023-05-21T07:10:58;95009.22;;;18.48;37.93
48156;BME280;35568;48.104;11.782;2023-05-21T07:13:26;95007.76;;;18.49;37.85
48156;BME280;35568;48.104;11.782;2023-05-21T07:15:54;95010.45;;;18.89;37.25
48156;BME280;35568;48.104;11.782;2023-05-21T07:18:21;95006.35;;;19.08;37.17
48156;BME280;35568;48.104;11.782;2023-05-21T07:20:48;95006.81;;;18.88;37.16
48156;BME280;35568;48.104;11.782;2023-05-21T07:23:15;95003.93;;;19.20;36.87
48156;BME280;35568;48.104;11.782;2023-05-21T07:25:42;95003.04;;;18.89;37.19
48156;BME280;35568;48.104;11.782;2023-05-21T07:28:09;95007.32;;;19.36;37.08
48156;BME280;35568;48.104;11.782;2023-05-21T07:30:36;95007.08;;;19.47;37.13
48156;BME280;35568;48.104;11.782;2023-05-21T07:33:02;95004.50;;;19.78;36.79
48156;BME280;35568;48.104;11.782;2023-05-21T07:35:30;95001.84;;;19.57;36.46
48156;BME280;35568;48.104;11.782;2023-05-21T07:37:56;95004.83;;;20.08;36.28
48156;BME280;35568;48.104;11.782;2023-05-21T07:40:24;95003.64;;;20.04;36.25
48156;BME280;35568;48.104;11.782;2023-05-21T07:42:51;95006.22;;;20.04;36.07
48156;BME280;35568;48.104;11.782;2023-05-21T07:45:18;95007.87;;;20.03;36.11
48156;BME280;35568;48.104;11.782;2023-05-21T07:47:45;95006.40;;;20.47;35.69
48156;BME280;35568;48.104;11.782;2023-05-21T07:50:13;95007.56;;;19.80;35.82
48156;BME280;35568;48.104;11.782;2023-05-21T07:52:40;95004.77;;;20.89;34.96
48156;BME280;35568;48.104;11.782;2023-05-21T07:55:08;95003.51;;;20.82;35.17
48156;BME280;35568;48.104;11.782;2023-05-21T07:57:35;95003.73;;;20.45;35.76
48156;BME280;35568;48.104;11.782;2023-05-21T08:00:03;95003.21;;;20.82;35.75
48156;BME280;35568;48.104;11.782;2023-05-21T08:02:29;95002.51;;;21.37;35.41
48156;BME280;35568;48.104;11.782;2023-05-21T08:04:56;95002.57;;;20.61;35.77
48156;BME280;35568;48.104;11.782;2023-05-21T08:07:23;95003.20;;;20.92;35.93
48156;BME280;35568;48.104;11.782;2023-05-21T08:09:50;95005.01;;;20.82;35.95
48156;BME280;35568;48.104;11.782;2023-05-21T08:12:17;95005.02;;;21.17;35.91
48156;BME280;35568;48.104;11.782;2023-05-21T08:14:43;95006.43;;;21.31;35.67
48156;BME280;35568;48.104;11.782;2023-05-21T08:17:10;95008.56;;;21.74;35.70
48156;BME280;35568;48.104;11.782;2023-05-21T08:19:37;95007.78;;;21.37;35.66
48156;BME280;35568;48.104;11.782;2023-05-21T08:22:04;95007.93;;;22.07;35.25
48156;BME280;35568;48.104;11.782;2023-05-21T08:24:31;95009.84;;;22.19;35.50
48156;BME280;35568;48.104;11.782;2023-05-21T08:26:59;95008.94;;;22.14;35.31
48156;BME280;35568;48.104;11.782;2023-05-21T08:29:25;95008.89;;;22.96;34.94
48156;BME280;35568;48.104;11.782;2023-05-21T08:31:52;95008.96;;;23.46;34.31
48156;BME280;35568;48.104;11.782;2023-05-21T08:34:20;95009.97;;;23.94;32.42
48156;BME280;35568;48.104;11.782;2023-05-21T08:36:47;95008.58;;;24.49;31.18
48156;BME280;35568;48.104;11.782;2023-05-21T08:39:15;95009.25;;;25.42;29.30
48156;BME280;35568;48.104;11.782;2023-05-21T08:41:42;95006.44;;;25.97;27.81
48156;BME280;35568;48.104;11.782;2023-05-21T08:44:11;95011.02;;;26.47;27.12
48156;BME280;35568;48.104;11.782;2023-05-21T08:46:39;95009.61;;;26.76;27.02
48156;BME280;35568;48.104;11.782;2023-05-21T08:49:11;95006.74;;;27.01;26.25
48156;BME280;35568;48.104;11.782;2023-05-21T08:51:38;95005.52;;;27.08;25.61
48156;BME280;35568;48.104;11.782;2023-05-21T08:54:06;95007.05;;;27.55;25.16
48156;BME280;35568;48.104;11.782;2023-05-21T08:56:34;95010.47;;;27.44;24.43
48156;BME280;35568;48.104;11.782;2023-05-21T08:59:01;95012.53;;;27.44;24.34
48156;BME280;35568;48.104;11.782;2023-05-21T09:01:29;95010.52;;;27.30;24.88
48156;BME280;35568;48.104;11.782;2023-05-21T09:03:59;95010.07;;;27.46;24.13
48156;BME280;35568;48.104;11.782;2023-05-21T09:06:27;95015.05;;;28.49;22.92
48156;BME280;35568;48.104;11.782;2023-05-21T09:08:59;95012.98;;;28.46;22.21
48156;BME280;35568;48.104;11.782;2023-05-21T09:11:28;95007.64;;;28.60;23.58
48156;BME280;35568;48.104;11.782;2023-05-21T09:13:57;95013.14;;;29.65;22.04
48156;BME280;35568;48.104;11.782;2023-05-21T09:16:24;95012.64;;;29.34;22.12
48156;BME280;35568;48.104;11.782;2023-05-21T09:18:50;95015.60;;;29.71;22.24
48156;BME280;35568;48.104;11.782;2023-05-21T09:21:26;95018.10;;;29.37;21.87
48156;BME280;35568;48.104;11.782;2023-05-21T09:23:54;95013.74;;;30.34;22.23
48156;BME280;35568;48.104;11.782;2023-05-21T09:26:22;95010.38;;;29.37;21.64
48156;BME280;35568;48.104;11.782;2023-05-21T09:28:50;95008.62;;;30.16;21.00
48156;BME280;35568;48.104;11.782;2023-05-21T09:31:18;95010.19;;;29.92;21.41
48156;BME280;35568;48.104;11.782;2023-05-21T09:33:46;95011.93;;;29.53;21.35
48156;BME280;35568;48.104;11.782;2023-05-21T09:36:12;95014.01;;;29.33;21.96
48156;BME280;35568;48.104;11.782;2023-05-21T09:38:39;95019.76;;;28.97;23.22
48156;BME280;35568;48.104;11.782;2023-05-21T09:41:06;95016.92;;;28.77;23.38
48156;BME280;35568;48.104;11.782;2023-05-21T09:43:34;95021.44;;;28.96;23.20
48156;BME280;35568;48.104;11.782;2023-05-21T09:46:02;95017.77;;;28.66;23.04
48156;BME280;35568;48.104;11.782;2023-05-21T09:48:33;95016.86;;;28.42;23.22
48156;BME280;35568;48.104;11.782;2023-05-21T09:51:09;95018.64;;;29.31;23.10
48156;BME280;35568;48.104;11.782;2023-05-21T09:53:42;95017.93;;;29.64;22.56
48156;BME280;35568;48.104;11.782;2023-05-21T09:56:10;95015.58;;;29.48;22.81
48156;BME280;35568;48.104;11.782;2023-05-21T09:58:37;95015.55;;;29.14;23.42
48156;BME280;35568;48.104;11.782;2023-05-21T10:01:05;95017.83;;;29.53;22.54
48156;BME280;35568;48.104;11.782;2023-05-21T10:03:32;95019.57;;;29.56;22.41
48156;BME280;35568;48.104;11.782;2023-05-21T10:06:07;95014.57;;;29.19;22.19
48156;BME280;35568;48.104;11.782;2023-05-21T10:08:35;95012.95;;;29.06;22.67
48156;BME280;35568;48.104;11.782;2023-05-21T10:11:08;95009.29;;;29.54;22.14
48156;BME280;35568;48.104;11.782;2023-05-21T10:13:38;95011.40;;;29.44;21.80
48156;BME280;35568;48.104;11.782;2023-05-21T10:16:07;95004.79;;;30.02;21.72
48156;BME280;35568;48.104;11.782;2023-05-21T10:18:36;95002.77;;;29.76;21.01
48156;BME280;35568;48.104;11.782;2023-05-21T10:21:04;95002.29;;;29.31;21.51
48156;BME280;35568;48.104;11.782;2023-05-21T10:23:31;95000.44;;;30.41;21.26
48156;BME280;35568;48.104;11.782;2023-05-21T10:26:01;94999.28;;;30.03;20.37
48156;BME280;35568;48.104;11.782;2023-05-21T10:28:28;94994.59;;;30.42;20.81
48156;BME280;35568;48.104;11.782;2023-05-21T10:30:57;94989.27;;;29.94;20.78
48156;BME280;35568;48.104;11.782;2023-05-21T10:33:24;94989.23;;;29.98;21.07
48156;BME280;35568;48.104;11.782;2023-05-21T10:35:53;94990.11;;;30.89;20.83
48156;BME280;35568;48.104;11.782;2023-05-21T10:38:24;94991.31;;;30.53;21.09
48156;BME280;35568;48.104;11.782;2023-05-21T10:40:52;94991.15;;;31.40;20.03
48156;BME280;35568;48.104;11.782;2023-05-21T10:43:33;94989.41;;;31.70;19.40
48156;BME280;35568;48.104;11.782;2023-05-21T10:46:17;94986.92;;;32.20;19.17
48156;BME280;35568;48.104;11.782;2023-05-21T10:49:01;94984.10;;;32.66;18.37
48156;BME280;35568;48.104;11.782;2023-05-21T10:51:40;94982.82;;;32.97;18.33
48156;BME280;35568;48.104;11.782;2023-05-21T10:54:50;94979.49;;;32.94;18.20
48156;BME280;35568;48.104;11.782;2023-05-21T10:57:57;94984.94;;;32.89;18.04
48156;BME280;35568;48.104;11.782;2023-05-21T11:00:27;94984.96;;;33.38;17.07
48156;BME280;35568;48.104;11.782;2023-05-21T11:02:56;94981.43;;;32.74;18.00
48156;BME280;35568;48.104;11.782;2023-05-21T11:05:39;94977.06;;;32.41;17.60
48156;BME280;35568;48.104;11.782;2023-05-21T11:08:20;94975.28;;;32.70;17.42
48156;BME280;35568;48.104;11.782;2023-05-21T11:10:52;94973.65;;;33.32;17.73
48156;BME280;35568;48.104;11.782;2023-05-21T11:13:20;94973.37;;;32.81;17.14
48156;BME280;35568;48.104;11.782;2023-05-21T11:16:22;94979.79;;;33.20;17.28
48156;BME280;35568;48.104;11.782;2023-05-21T11:18:59;94980.63;;;33.24;17.35
48156;BME280;35568;48.104;11.782;2023-05-21T11:21:28;94973.87;;;32.29;17.21
48156;BME280;35568;48.104;11.782;2023-05-21T11:24:00;94978.68;;;33.17;17.68
48156;BME280;35568;48.104;11.782;2023-05-21T11:26:29;94972.97;;;33.81;16.13
48156;BME280;35568;48.104;11.782;2023-05-21T11:29:07;94972.60;;;34.71;15.94
48156;BME280;35568;48.104;11.782;2023-05-21T11:31:35;94974.87;;;34.89;15.77
48156;BME280;35568;48.104;11.782;2023-05-21T11:34:19;94965.94;;;35.24;14.46
48156;BME280;35568;48.104;11.782;2023-05-21T11:36:47;94962.36;;;35.08;14.81
48156;BME280;35568;48.104;11.782;2023-05-21T11:39:16;94966.93;;;35.46;14.92
48156;BME280;35568;48.104;11.782;2023-05-21T11:41:51;94966.72;;;35.07;14.91
48156;BME280;35568;48.104;11.782;2023-05-21T11:44:21;94968.31;;;35.21;15.71
48156;BME280;35568;48.104;11.782;2023-05-21T11:47:03;94963.89;;;35.67;14.92
48156;BME280;35568;48.104;11.782;2023-05-21T11:49:31;94963.61;;;35.51;15.15
48156;BME280;35568;48.104;11.782;2023-05-21T11:51:59;94964.39;;;35.05;14.82
48156;BME280;35568;48.104;11.782;2023-05-21T11:54:26;94966.16;;;34.71;15.29
48156;BME280;35568;48.104;11.782;2023-05-21T11:56:54;94966.00;;;34.96;14.57
48156;BME280;35568;48.104;11.782;2023-05-21T11:59:21;94970.18;;;33.91;15.13
48156;BME280;35568;48.104;11.782;2023-05-21T12:01:47;94962.55;;;35.20;14.82
48156;BME280;35568;48.104;11.782;2023-05-21T12:04:14;94959.61;;;35.46;14.35
48156;BME280;35568;48.104;11.782;2023-05-21T12:06:42;94959.53;;;35.14;14.85
48156;BME280;35568;48.104;11.782;2023-05-21T12:09:09;94962.58;;;35.33;14.81
48156;BME280;35568;48.104;11.782;2023-05-21T12:11:37;94958.94;;;35.80;14.13
48156;BME280;35568;48.104;11.782;2023-05-21T12:14:06;94959.40;;;35.74;14.09
48156;BME280;35568;48.104;11.782;2023-05-21T12:16:33;94954.29;;;36.31;13.99
48156;BME280;35568;48.104;11.782;2023-05-21T12:19:01;94958.19;;;36.01;13.67
48156;BME280;35568;48.104;11.782;2023-05-21T12:21:28;94957.13;;;36.10;13.82
48156;BME280;35568;48.104;11.782;2023-05-21T12:23:55;94956.26;;;36.31;13.71
48156;BME280;35568;48.104;11.782;2023-05-21T12:26:22;94955.33;;;34.68;14.60
48156;BME280;35568;48.104;11.782;2023-05-21T12:28:50;94950.06;;;35.69;14.02
48156;BME280;35568;48.104;11.782;2023-05-21T12:31:19;94949.60;;;36.44;14.24
48156;BME280;35568;48.104;11.782;2023-05-21T12:33:47;94951.97;;;36.99;13.48
48156;BME280;35568;48.104;11.782;2023-05-21T12:36:21;94950.79;;;37.23;13.38
48156;BME280;35568;48.104;11.782;2023-05-21T12:38:48;94951.84;;;37.07;12.53
48156;BME280;35568;48.104;11.782;2023-05-21T12:41:16;94955.11;;;37.16;13.02
48156;BME280;35568;48.104;11.782;2023-05-21T12:43:43;94956.75;;;35.87;12.54
48156;BME280;35568;48.104;11.782;2023-05-21T12:46:10;94953.23;;;35.45;13.71
48156;BME280;35568;48.104;11.782;2023-05-21T12:48:38;94951.34;;;35.43;13.46
48156;BME280;35568;48.104;11.782;2023-05-21T12:51:05;94954.74;;;35.11;13.41
48156;BME280;35568;48.104;11.782;2023-05-21T12:53:35;94955.49;;;34.93;13.56
48156;BME280;35568;48.104;11.782;2023-05-21T12:56:08;94951.75;;;34.70;14.32
48156;BME280;35568;48.104;11.782;2023-05-21T12:58:35;94955.26;;;35.37;14.11